sensor_id;sensor_type;location;lat;lon;timestamp;P1;durP1;ratioP1;P2;durP2;ratioP2
2019;SDS011;1014;51.960;8.542;2022-07-21T00:01:47;62.63;;;59.13;;
2019;SDS011;1014;51.960;8.542;2022-07-21T00:04:15;61.17;;;57.77;;
2019;SDS011;1014;51.960;8.542;2022-07-21T00:06:42;59.07;;;55.77;;
2019;SDS011;1014;51.960;8.542;2022-07-21T00:09:11;59.90;;;56.73;;
2019;SDS011;1014;51.960;8.542;2022-07-21T00:11:39;57.67;;;54.57;;
2019;SDS011;1014;51.960;8.542;2022-07-21T00:14:07;58.43;;;55.20;;
2019;SDS011;1014;51.960;8.542;2022-07-21T00:16:34;60.33;;;56.97;;
2019;SDS011;1014;51.960;8.542;2022-07-21T00:19:02;63.20;;;59.60;;
2019;SDS011;1014;51.960;8.542;2022-07-21T00:21:29;58.80;;;55.40;;
2019;SDS011;1014;51.960;8.542;2022-07-21T00:23:57;58.40;;;55.00;;
2019;SDS011;1014;51.960;8.542;2022-07-21T00:26:25;61.37;;;57.47;;
2019;SDS011;1014;51.960;8.542;2022-07-21T00:28:53;64.37;;;60.77;;
2019;SDS011;1014;51.960;8.542;2022-07-21T00:31:20;63.87;;;60.13;;
2019;SDS011;1014;51.960;8.542;2022-07-21T00:33:47;61.60;;;58.10;;
2019;SDS011;1014;51.960;8.542;2022-07-21T00:36:16;58.57;;;54.77;;
2019;SDS011;1014;51.960;8.542;2022-07-21T00:38:43;56.43;;;52.90;;
2019;SDS011;1014;51.960;8.542;2022-07-21T00:41:11;59.03;;;55.63;;
2019;SDS011;1014;51.960;8.542;2022-07-21T00:43:39;63.47;;;59.80;;
2019;SDS011;1014;51.960;8.542;2022-07-21T00:46:07;61.17;;;57.57;;
2019;SDS011;1014;51.960;8.542;2022-07-21T00:48:34;57.90;;;54.50;;
2019;SDS011;1014;51.960;8.542;2022-07-21T00:51:01;57.63;;;53.60;;
2019;SDS011;1014;51.960;8.542;2022-07-21T00:53:29;56.97;;;53.47;;
2019;SDS011;1014;51.960;8.542;2022-07-21T00:55:56;58.67;;;55.37;;
2019;SDS011;1014;51.960;8.542;2022-07-21T00:58:24;61.00;;;57.10;;
2019;SDS011;1014;51.960;8.542;2022-07-21T01:00:53;60.20;;;56.30;;
2019;SDS011;1014;51.960;8.542;2022-07-21T01:03:20;61.30;;;57.50;;
2019;SDS011;1014;51.960;8.542;2022-07-21T01:05:47;60.23;;;56.53;;
2019;SDS011;1014;51.960;8.542;2022-07-21T01:08:15;63.43;;;59.60;;
2019;SDS011;1014;51.960;8.542;2022-07-21T01:10:42;59.10;;;55.70;;
2019;SDS011;1014;51.960;8.542;2022-07-21T01:13:10;62.87;;;58.63;;
2019;SDS011;1014;51.960;8.542;2022-07-21T01:15:37;65.17;;;61.07;;
2019;SDS011;1014;51.960;8.542;2022-07-21T01:18:06;65.77;;;61.67;;
2019;SDS011;1014;51.960;8.542;2022-07-21T01:20:34;63.83;;;60.03;;
2019;SDS011;1014;51.960;8.542;2022-07-21T01:23:03;66.97;;;62.70;;
2019;SDS011;1014;51.960;8.542;2022-07-21T01:25:30;63.27;;;59.47;;
2019;SDS011;1014;51.960;8.542;2022-07-21T01:27:58;62.40;;;58.53;;
2019;SDS011;1014;51.960;8.542;2022-07-21T01:30:25;61.10;;;57.37;;
2019;SDS011;1014;51.960;8.542;2022-07-21T01:32:52;66.50;;;62.30;;
2019;SDS011;1014;51.960;8.542;2022-07-21T01:35:20;66.20;;;62.27;;
2019;SDS011;1014;51.960;8.542;2022-07-21T01:37:47;62.07;;;58.37;;
2019;SDS011;1014;51.960;8.542;2022-07-21T01:40:17;65.67;;;61.20;;
2019;SDS011;1014;51.960;8.542;2022-07-21T01:43:02;63.80;;;59.87;;
2019;SDS011;1014;51.960;8.542;2022-07-21T01:45:30;65.23;;;61.33;;
2019;SDS011;1014;51.960;8.542;2022-07-21T01:47:57;65.07;;;61.27;;
2019;SDS011;1014;51.960;8.542;2022-07-21T01:50:25;67.37;;;63.43;;
2019;SDS011;1014;51.960;8.542;2022-07-21T01:52:53;63.53;;;59.53;;
2019;SDS011;1014;51.960;8.542;2022-07-21T01:55:23;64.63;;;60.63;;
2019;SDS011;1014;51.960;8.542;2022-07-21T01:57:50;69.33;;;64.40;;
2019;SDS011;1014;51.960;8.542;2022-07-21T02:00:17;63.93;;;59.87;;
2019;SDS011;1014;51.960;8.542;2022-07-21T02:02:45;63.17;;;59.07;;
2019;SDS011;1014;51.960;8.542;2022-07-21T02:05:12;63.23;;;59.30;;
2019;SDS011;1014;51.960;8.542;2022-07-21T02:07:40;65.77;;;61.13;;
2019;SDS011;1014;51.960;8.542;2022-07-21T02:10:07;67.50;;;63.50;;
2019;SDS011;1014;51.960;8.542;2022-07-21T02:12:36;68.83;;;64.63;;
2019;SDS011;1014;51.960;8.542;2022-07-21T02:15:04;68.73;;;64.27;;
2019;SDS011;1014;51.960;8.542;2022-07-21T02:17:31;66.83;;;62.47;;
2019;SDS011;1014;51.960;8.542;2022-07-21T02:19:59;62.77;;;58.90;;
2019;SDS011;1014;51.960;8.542;2022-07-21T02:22:26;65.77;;;61.73;;
2019;SDS011;1014;51.960;8.542;2022-07-21T02:24:53;64.50;;;60.20;;
2019;SDS011;1014;51.960;8.542;2022-07-21T02:27:21;64.17;;;60.17;;
2019;SDS011;1014;51.960;8.542;2022-07-21T02:29:50;62.37;;;58.50;;
2019;SDS011;1014;51.960;8.542;2022-07-21T02:32:17;63.30;;;59.07;;
2019;SDS011;1014;51.960;8.542;2022-07-21T02:34:45;58.63;;;54.87;;
2019;SDS011;1014;51.960;8.542;2022-07-21T02:37:12;56.30;;;52.60;;
2019;SDS011;1014;51.960;8.542;2022-07-21T02:39:39;61.20;;;57.20;;
2019;SDS011;1014;51.960;8.542;2022-07-21T02:42:07;62.57;;;58.67;;
2019;SDS011;1014;51.960;8.542;2022-07-21T02:44:34;62.40;;;58.10;;
2019;SDS011;1014;51.960;8.542;2022-07-21T02:47:03;57.20;;;53.40;;
2019;SDS011;1014;51.960;8.542;2022-07-21T02:49:31;59.80;;;55.80;;
2019;SDS011;1014;51.960;8.542;2022-07-21T02:51:58;61.07;;;56.57;;
2019;SDS011;1014;51.960;8.542;2022-07-21T02:54:26;62.53;;;58.23;;
2019;SDS011;1014;51.960;8.542;2022-07-21T02:56:53;62.87;;;58.67;;
2019;SDS011;1014;51.960;8.542;2022-07-21T02:59:20;63.80;;;59.50;;
2019;SDS011;1014;51.960;8.542;2022-07-21T03:01:48;66.93;;;62.33;;
2019;SDS011;1014;51.960;8.542;2022-07-21T03:04:16;63.00;;;58.90;;
2019;SDS011;1014;51.960;8.542;2022-07-21T03:06:44;65.33;;;61.00;;
2019;SDS011;1014;51.960;8.542;2022-07-21T03:09:11;61.27;;;57.17;;
2019;SDS011;1014;51.960;8.542;2022-07-21T03:11:38;64.20;;;60.00;;
2019;SDS011;1014;51.960;8.542;2022-07-21T03:14:06;62.47;;;57.97;;
2019;SDS011;1014;51.960;8.542;2022-07-21T03:16:33;64.33;;;59.83;;
2019;SDS011;1014;51.960;8.542;2022-07-21T03:19:00;63.83;;;59.20;;
2019;SDS011;1014;51.960;8.542;2022-07-21T03:21:29;62.00;;;57.80;;
2019;SDS011;1014;51.960;8.542;2022-07-21T03:23:57;66.70;;;62.40;;
2019;SDS011;1014;51.960;8.542;2022-07-21T03:26:24;63.60;;;59.30;;
2019;SDS011;1014;51.960;8.542;2022-07-21T03:28:51;62.37;;;58.43;;
2019;SDS011;1014;51.960;8.542;2022-07-21T03:31:19;65.47;;;61.30;;
2019;SDS011;1014;51.960;8.542;2022-07-21T03:33:46;67.23;;;63.13;;
2019;SDS011;1014;51.960;8.542;2022-07-21T03:36:13;66.37;;;61.97;;
2019;SDS011;1014;51.960;8.542;2022-07-21T03:38:42;63.23;;;59.07;;
2019;SDS011;1014;51.960;8.542;2022-07-21T03:41:09;67.77;;;63.57;;
2019;SDS011;1014;51.960;8.542;2022-07-21T03:43:37;64.53;;;60.33;;
2019;SDS011;1014;51.960;8.542;2022-07-21T03:46:04;67.50;;;62.97;;
2019;SDS011;1014;51.960;8.542;2022-07-21T03:48:32;69.70;;;65.43;;
2019;SDS011;1014;51.960;8.542;2022-07-21T03:50:59;68.17;;;63.77;;
2019;SDS011;1014;51.960;8.542;2022-07-21T03:53:27;68.90;;;64.40;;
2019;SDS011;1014;51.960;8.542;2022-07-21T03:55:55;63.70;;;59.80;;
2019;SDS011;1014;51.960;8.542;2022-07-21T03:58:23;67.00;;;62.53;;
2019;SDS011;1014;51.960;8.542;2022-07-21T04:00:50;61.40;;;57.80;;
2019;SDS011;1014;51.960;8.542;2022-07-21T04:03:17;64.63;;;60.67;;
2019;SDS011;1014;51.960;8.542;2022-07-21T04:05:45;62.87;;;59.20;;
2019;SDS011;1014;51.960;8.542;2022-07-21T04:08:12;56.00;;;52.80;;
2019;SDS011;1014;51.960;8.542;2022-07-21T04:10:41;56.17;;;52.73;;
2019;SDS011;1014;51.960;8.542;2022-07-21T04:13:11;53.00;;;50.00;;
2019;SDS011;1014;51.960;8.542;2022-07-21T04:15:38;61.23;;;55.77;;
2019;SDS011;1014;51.960;8.542;2022-07-21T04:18:06;54.53;;;51.40;;
2019;SDS011;1014;51.960;8.542;2022-07-21T04:20:34;56.37;;;53.07;;
2019;SDS011;1014;51.960;8.542;2022-07-21T04:23:01;58.67;;;55.17;;
2019;SDS011;1014;51.960;8.542;2022-07-21T04:25:30;63.07;;;58.97;;
2019;SDS011;1014;51.960;8.542;2022-07-21T04:27:57;57.53;;;53.47;;
2019;SDS011;1014;51.960;8.542;2022-07-21T04:30:26;57.87;;;54.20;;
2019;SDS011;1014;51.960;8.542;2022-07-21T04:32:56;57.40;;;54.13;;
2019;SDS011;1014;51.960;8.542;2022-07-21T04:35:23;60.70;;;57.10;;
2019;SDS011;1014;51.960;8.542;2022-07-21T04:37:51;61.10;;;57.70;;
2019;SDS011;1014;51.960;8.542;2022-07-21T04:40:18;61.80;;;57.97;;
2019;SDS011;1014;51.960;8.542;2022-07-21T04:42:45;62.50;;;58.50;;
2019;SDS011;1014;51.960;8.542;2022-07-21T04:45:13;61.43;;;57.43;;
2019;SDS011;1014;51.960;8.542;2022-07-21T04:47:43;64.00;;;60.03;;
2019;SDS011;1014;51.960;8.542;2022-07-21T04:50:11;61.70;;;57.83;;
2019;SDS011;1014;51.960;8.542;2022-07-21T04:52:38;65.20;;;61.00;;
2019;SDS011;1014;51.960;8.542;2022-07-21T04:55:06;67.40;;;62.90;;
2019;SDS011;1014;51.960;8.542;2022-07-21T04:57:36;68.70;;;64.40;;
2019;SDS011;1014;51.960;8.542;2022-07-21T05:00:03;68.90;;;64.53;;
2019;SDS011;1014;51.960;8.542;2022-07-21T05:02:31;67.53;;;63.13;;
2019;SDS011;1014;51.960;8.542;2022-07-21T05:05:00;67.40;;;63.00;;
2019;SDS011;1014;51.960;8.542;2022-07-21T05:07:27;69.37;;;64.67;;
2019;SDS011;1014;51.960;8.542;2022-07-21T05:09:55;69.37;;;64.73;;
2019;SDS011;1014;51.960;8.542;2022-07-21T05:12:23;70.57;;;65.87;;
2019;SDS011;1014;51.960;8.542;2022-07-21T05:14:51;71.33;;;66.43;;
2019;SDS011;1014;51.960;8.542;2022-07-21T05:17:18;68.67;;;63.47;;
2019;SDS011;1014;51.960;8.542;2022-07-21T05:19:45;72.00;;;66.80;;
2019;SDS011;1014;51.960;8.542;2022-07-21T05:22:16;74.30;;;69.27;;
2019;SDS011;1014;51.960;8.542;2022-07-21T05:24:44;73.40;;;68.40;;
2019;SDS011;1014;51.960;8.542;2022-07-21T05:27:11;76.67;;;71.70;;
2019;SDS011;1014;51.960;8.542;2022-07-21T05:29:38;78.53;;;73.13;;
2019;SDS011;1014;51.960;8.542;2022-07-21T05:32:06;83.90;;;77.97;;
2019;SDS011;1014;51.960;8.542;2022-07-21T05:34:33;83.23;;;77.63;;
2019;SDS011;1014;51.960;8.542;2022-07-21T05:37:01;84.73;;;79.10;;
2019;SDS011;1014;51.960;8.542;2022-07-21T05:39:30;81.57;;;76.07;;
2019;SDS011;1014;51.960;8.542;2022-07-21T05:41:57;81.73;;;76.40;;
2019;SDS011;1014;51.960;8.542;2022-07-21T05:44:24;79.77;;;74.50;;
2019;SDS011;1014;51.960;8.542;2022-07-21T05:46:52;77.87;;;72.47;;
2019;SDS011;1014;51.960;8.542;2022-07-21T05:49:19;87.20;;;81.30;;
2019;SDS011;1014;51.960;8.542;2022-07-21T05:51:46;80.83;;;75.23;;
2019;SDS011;1014;51.960;8.542;2022-07-21T05:54:14;82.77;;;76.87;;
2019;SDS011;1014;51.960;8.542;2022-07-21T05:56:42;74.30;;;68.80;;
2019;SDS011;1014;51.960;8.542;2022-07-21T05:59:10;74.50;;;69.40;;
2019;SDS011;1014;51.960;8.542;2022-07-21T06:01:37;72.17;;;67.23;;
2019;SDS011;1014;51.960;8.542;2022-07-21T06:04:04;71.90;;;67.07;;
2019;SDS011;1014;51.960;8.542;2022-07-21T06:06:32;72.40;;;67.47;;
2019;SDS011;1014;51.960;8.542;2022-07-21T06:08:59;68.73;;;63.83;;
2019;SDS011;1014;51.960;8.542;2022-07-21T06:11:26;68.87;;;63.90;;
2019;SDS011;1014;51.960;8.542;2022-07-21T06:13:55;72.67;;;67.50;;
2019;SDS011;1014;51.960;8.542;2022-07-21T06:16:23;72.97;;;67.77;;
2019;SDS011;1014;51.960;8.542;2022-07-21T06:18:50;74.60;;;69.50;;
2019;SDS011;1014;51.960;8.542;2022-07-21T06:21:18;77.50;;;72.00;;
2019;SDS011;1014;51.960;8.542;2022-07-21T06:23:45;72.37;;;67.27;;
2019;SDS011;1014;51.960;8.542;2022-07-21T06:26:12;81.97;;;76.27;;
2019;SDS011;1014;51.960;8.542;2022-07-21T06:28:40;80.53;;;74.60;;
2019;SDS011;1014;51.960;8.542;2022-07-21T06:31:09;77.93;;;72.53;;
2019;SDS011;1014;51.960;8.542;2022-07-21T06:33:36;78.33;;;73.07;;
2019;SDS011;1014;51.960;8.542;2022-07-21T06:36:04;81.80;;;75.80;;
2019;SDS011;1014;51.960;8.542;2022-07-21T06:38:32;78.87;;;73.10;;
2019;SDS011;1014;51.960;8.542;2022-07-21T06:41:00;81.80;;;75.70;;
2019;SDS011;1014;51.960;8.542;2022-07-21T06:43:28;81.40;;;75.70;;
2019;SDS011;1014;51.960;8.542;2022-07-21T06:45:56;83.53;;;77.63;;
2019;SDS011;1014;51.960;8.542;2022-07-21T06:48:25;79.30;;;73.60;;
2019;SDS011;1014;51.960;8.542;2022-07-21T06:50:55;76.40;;;70.90;;
2019;SDS011;1014;51.960;8.542;2022-07-21T06:53:22;76.33;;;70.97;;
2019;SDS011;1014;51.960;8.542;2022-07-21T06:55:50;72.87;;;67.63;;
2019;SDS011;1014;51.960;8.542;2022-07-21T06:58:18;72.13;;;67.33;;
2019;SDS011;1014;51.960;8.542;2022-07-21T07:00:47;72.90;;;67.77;;
2019;SDS011;1014;51.960;8.542;2022-07-21T07:03:15;68.73;;;64.03;;
2019;SDS011;1014;51.960;8.542;2022-07-21T07:05:44;65.13;;;60.77;;
2019;SDS011;1014;51.960;8.542;2022-07-21T07:08:13;68.90;;;64.33;;
2019;SDS011;1014;51.960;8.542;2022-07-21T07:10:40;68.47;;;63.67;;
2019;SDS011;1014;51.960;8.542;2022-07-21T07:13:08;71.70;;;67.00;;
2019;SDS011;1014;51.960;8.542;2022-07-21T07:15:35;66.93;;;62.67;;
2019;SDS011;1014;51.960;8.542;2022-07-21T07:18:04;67.70;;;63.20;;
2019;SDS011;1014;51.960;8.542;2022-07-21T07:20:31;66.37;;;62.07;;
2019;SDS011;1014;51.960;8.542;2022-07-21T07:23:00;63.50;;;59.50;;
2019;SDS011;1014;51.960;8.542;2022-07-21T07:25:28;58.67;;;54.93;;
2019;SDS011;1014;51.960;8.542;2022-07-21T07:27:56;60.83;;;56.70;;
2019;SDS011;1014;51.960;8.542;2022-07-21T07:30:23;61.47;;;57.13;;
2019;SDS011;1014;51.960;8.542;2022-07-21T07:32:51;59.93;;;55.93;;
2019;SDS011;1014;51.960;8.542;2022-07-21T07:35:18;61.27;;;57.47;;
2019;SDS011;1014;51.960;8.542;2022-07-21T07:37:46;59.07;;;55.40;;
2019;SDS011;1014;51.960;8.542;2022-07-21T07:40:16;62.47;;;58.47;;
2019;SDS011;1014;51.960;8.542;2022-07-21T07:42:44;59.20;;;55.50;;
2019;SDS011;1014;51.960;8.542;2022-07-21T07:45:11;56.00;;;52.50;;
2019;SDS011;1014;51.960;8.542;2022-07-21T07:47:39;57.43;;;53.77;;
2019;SDS011;1014;51.960;8.542;2022-07-21T07:50:11;53.10;;;49.70;;
2019;SDS011;1014;51.960;8.542;2022-07-21T07:52:39;53.20;;;49.93;;
2019;SDS011;1014;51.960;8.542;2022-07-21T07:55:07;54.63;;;51.20;;
2019;SDS011;1014;51.960;8.542;2022-07-21T07:57:38;53.93;;;50.37;;
2019;SDS011;1014;51.960;8.542;2022-07-21T08:00:07;51.57;;;48.43;;
2019;SDS011;1014;51.960;8.542;2022-07-21T08:02:35;54.40;;;51.20;;
2019;SDS011;1014;51.960;8.542;2022-07-21T08:05:03;49.77;;;46.37;;
2019;SDS011;1014;51.960;8.542;2022-07-21T08:07:30;48.37;;;45.20;;
2019;SDS011;1014;51.960;8.542;2022-07-21T08:09:57;45.90;;;43.20;;
2019;SDS011;1014;51.960;8.542;2022-07-21T08:12:25;46.13;;;43.33;;
2019;SDS011;1014;51.960;8.542;2022-07-21T08:14:56;45.67;;;43.00;;
2019;SDS011;1014;51.960;8.542;2022-07-21T08:17:24;45.83;;;43.10;;
2019;SDS011;1014;51.960;8.542;2022-07-21T08:19:51;43.00;;;40.43;;
2019;SDS011;1014;51.960;8.542;2022-07-21T08:22:19;43.67;;;41.07;;
2019;SDS011;1014;51.960;8.542;2022-07-21T08:24:46;46.03;;;43.13;;
2019;SDS011;1014;51.960;8.542;2022-07-21T08:27:13;43.23;;;40.70;;
2019;SDS011;1014;51.960;8.542;2022-07-21T08:29:41;40.70;;;38.10;;
2019;SDS011;1014;51.960;8.542;2022-07-21T08:32:10;42.37;;;39.43;;
2019;SDS011;1014;51.960;8.542;2022-07-21T08:34:37;39.40;;;37.00;;
2019;SDS011;1014;51.960;8.542;2022-07-21T08:37:05;39.77;;;37.23;;
2019;SDS011;1014;51.960;8.542;2022-07-21T08:39:32;38.60;;;36.20;;
2019;SDS011;1014;51.960;8.542;2022-07-21T08:41:59;36.70;;;34.50;;
2019;SDS011;1014;51.960;8.542;2022-07-21T08:44:27;35.87;;;33.47;;
2019;SDS011;1014;51.960;8.542;2022-07-21T08:46:55;34.93;;;32.80;;
2019;SDS011;1014;51.960;8.542;2022-07-21T08:49:24;34.80;;;32.60;;
2019;SDS011;1014;51.960;8.542;2022-07-21T08:51:52;34.17;;;31.90;;
2019;SDS011;1014;51.960;8.542;2022-07-21T08:54:19;33.07;;;30.97;;
2019;SDS011;1014;51.960;8.542;2022-07-21T08:56:46;32.07;;;30.27;;
2019;SDS011;1014;51.960;8.542;2022-07-21T08:59:14;31.20;;;29.20;;
2019;SDS011;1014;51.960;8.542;2022-07-21T09:01:41;32.63;;;30.70;;
2019;SDS011;1014;51.960;8.542;2022-07-21T09:04:19;31.53;;;29.53;;
2019;SDS011;1014;51.960;8.542;2022-07-21T09:06:51;31.43;;;29.43;;
2019;SDS011;1014;51.960;8.542;2022-07-21T09:09:19;30.73;;;28.80;;
2019;SDS011;1014;51.960;8.542;2022-07-21T09:11:47;31.10;;;29.20;;
2019;SDS011;1014;51.960;8.542;2022-07-21T09:14:15;30.30;;;28.40;;
2019;SDS011;1014;51.960;8.542;2022-07-21T09:16:44;29.77;;;27.97;;
2019;SDS011;1014;51.960;8.542;2022-07-21T09:19:15;31.20;;;29.20;;
2019;SDS011;1014;51.960;8.542;2022-07-21T09:21:43;30.57;;;28.57;;
2019;SDS011;1014;51.960;8.542;2022-07-21T09:24:13;31.83;;;29.80;;
2019;SDS011;1014;51.960;8.542;2022-07-21T09:26:56;29.20;;;27.30;;
2019;SDS011;1014;51.960;8.542;2022-07-21T09:29:24;31.03;;;28.83;;
2019;SDS011;1014;51.960;8.542;2022-07-21T09:31:51;28.53;;;26.63;;
2019;SDS011;1014;51.960;8.542;2022-07-21T09:34:18;30.13;;;28.23;;
2019;SDS011;1014;51.960;8.542;2022-07-21T09:36:56;29.57;;;27.67;;
2019;SDS011;1014;51.960;8.542;2022-07-21T09:42:12;30.80;;;28.70;;
2019;SDS011;1014;51.960;8.542;2022-07-21T09:44:41;31.43;;;29.30;;
2019;SDS011;1014;51.960;8.542;2022-07-21T09:47:09;30.23;;;28.23;;
2019;SDS011;1014;51.960;8.542;2022-07-21T09:49:38;31.33;;;29.27;;
2019;SDS011;1014;51.960;8.542;2022-07-21T09:52:17;30.87;;;28.77;;
2019;SDS011;1014;51.960;8.542;2022-07-21T09:54:44;33.33;;;31.03;;
2019;SDS011;1014;51.960;8.542;2022-07-21T09:57:13;30.83;;;28.73;;
2019;SDS011;1014;51.960;8.542;2022-07-21T09:59:42;31.90;;;29.80;;
2019;SDS011;1014;51.960;8.542;2022-07-21T10:02:11;31.10;;;29.00;;
2019;SDS011;1014;51.960;8.542;2022-07-21T10:04:41;33.87;;;31.37;;
2019;SDS011;1014;51.960;8.542;2022-07-21T10:07:09;32.83;;;30.73;;
2019;SDS011;1014;51.960;8.542;2022-07-21T10:09:37;31.17;;;29.00;;
2019;SDS011;1014;51.960;8.542;2022-07-21T10:12:04;30.47;;;28.57;;
2019;SDS011;1014;51.960;8.542;2022-07-21T10:14:34;34.30;;;32.10;;
2019;SDS011;1014;51.960;8.542;2022-07-21T10:17:01;31.80;;;29.70;;
2019;SDS011;1014;51.960;8.542;2022-07-21T10:19:30;31.40;;;29.30;;
2019;SDS011;1014;51.960;8.542;2022-07-21T10:22:00;31.53;;;29.53;;
2019;SDS011;1014;51.960;8.542;2022-07-21T10:24:29;29.07;;;27.20;;
2019;SDS011;1014;51.960;8.542;2022-07-21T10:27:01;32.13;;;29.77;;
2019;SDS011;1014;51.960;8.542;2022-07-21T10:32:15;29.30;;;27.30;;
2019;SDS011;1014;51.960;8.542;2022-07-21T10:34:43;31.70;;;29.70;;
2019;SDS011;1014;51.960;8.542;2022-07-21T10:37:11;31.30;;;29.10;;
2019;SDS011;1014;51.960;8.542;2022-07-21T10:39:59;30.63;;;28.80;;
2019;SDS011;1014;51.960;8.542;2022-07-21T10:42:27;29.63;;;27.83;;
2019;SDS011;1014;51.960;8.542;2022-07-21T10:44:54;32.03;;;29.93;;
2019;SDS011;1014;51.960;8.542;2022-07-21T10:47:22;32.50;;;30.30;;
2019;SDS011;1014;51.960;8.542;2022-07-21T10:49:55;33.70;;;31.30;;
2019;SDS011;1014;51.960;8.542;2022-07-21T10:55:15;31.50;;;29.40;;
2019;SDS011;1014;51.960;8.542;2022-07-21T10:58:08;33.90;;;31.60;;
2019;SDS011;1014;51.960;8.542;2022-07-21T11:00:35;31.67;;;29.57;;
2019;SDS011;1014;51.960;8.542;2022-07-21T11:03:04;35.13;;;32.17;;
2019;SDS011;1014;51.960;8.542;2022-07-21T11:06:09;32.10;;;29.80;;
2019;SDS011;1014;51.960;8.542;2022-07-21T11:08:30;31.87;;;29.77;;
2019;SDS011;1014;51.960;8.542;2022-07-21T11:11:06;31.77;;;29.67;;
2019;SDS011;1014;51.960;8.542;2022-07-21T11:16:15;30.20;;;28.30;;
2019;SDS011;1014;51.960;8.542;2022-07-21T11:18:43;29.60;;;27.63;;
2019;SDS011;1014;51.960;8.542;2022-07-21T11:21:12;30.83;;;28.63;;
2019;SDS011;1014;51.960;8.542;2022-07-21T11:23:43;29.60;;;27.80;;
2019;SDS011;1014;51.960;8.542;2022-07-21T11:26:12;27.63;;;25.83;;
2019;SDS011;1014;51.960;8.542;2022-07-21T11:28:40;28.07;;;26.37;;
2019;SDS011;1014;51.960;8.542;2022-07-21T11:31:08;27.37;;;25.60;;
2019;SDS011;1014;51.960;8.542;2022-07-21T11:33:37;26.50;;;24.90;;
2019;SDS011;1014;51.960;8.542;2022-07-21T11:36:04;26.23;;;24.67;;
2019;SDS011;1014;51.960;8.542;2022-07-21T11:38:32;26.67;;;25.00;;
2019;SDS011;1014;51.960;8.542;2022-07-21T11:43:48;23.50;;;22.20;;
2019;SDS011;1014;51.960;8.542;2022-07-21T11:46:16;24.80;;;23.30;;
2019;SDS011;1014;51.960;8.542;2022-07-21T11:48:43;25.00;;;23.63;;
2019;SDS011;1014;51.960;8.542;2022-07-21T11:51:11;23.70;;;22.40;;
2019;SDS011;1014;51.960;8.542;2022-07-21T11:53:42;25.40;;;23.80;;
2019;SDS011;1014;51.960;8.542;2022-07-21T11:56:13;24.70;;;23.00;;
2019;SDS011;1014;51.960;8.542;2022-07-21T11:58:42;35.87;;;33.57;;
2019;SDS011;1014;51.960;8.542;2022-07-21T12:01:11;85.77;;;52.00;;
2019;SDS011;1014;51.960;8.542;2022-07-21T12:03:48;42.10;;;38.00;;
2019;SDS011;1014;51.960;8.542;2022-07-21T12:06:15;36.70;;;33.33;;
2019;SDS011;1014;51.960;8.542;2022-07-21T12:08:43;39.43;;;36.53;;
2019;SDS011;1014;51.960;8.542;2022-07-21T12:11:10;35.30;;;32.90;;
2019;SDS011;1014;51.960;8.542;2022-07-21T12:13:51;38.60;;;35.50;;
2019;SDS011;1014;51.960;8.542;2022-07-21T12:16:19;37.40;;;34.60;;
2019;SDS011;1014;51.960;8.542;2022-07-21T12:18:47;35.80;;;33.00;;
2019;SDS011;1014;51.960;8.542;2022-07-21T12:21:14;34.10;;;31.70;;
2019;SDS011;1014;51.960;8.542;2022-07-21T12:23:42;33.07;;;30.93;;
2019;SDS011;1014;51.960;8.542;2022-07-21T12:26:20;33.03;;;30.83;;
2019;SDS011;1014;51.960;8.542;2022-07-21T12:28:48;33.60;;;31.60;;
2019;SDS011;1014;51.960;8.542;2022-07-21T12:31:18;30.93;;;29.13;;
2019;SDS011;1014;51.960;8.542;2022-07-21T12:33:48;30.00;;;28.17;;
2019;SDS011;1014;51.960;8.542;2022-07-21T12:36:16;28.60;;;26.80;;
2019;SDS011;1014;51.960;8.542;2022-07-21T12:38:43;28.90;;;27.00;;
2019;SDS011;1014;51.960;8.542;2022-07-21T12:41:12;29.47;;;27.57;;
2019;SDS011;1014;51.960;8.542;2022-07-21T12:43:39;28.07;;;26.40;;
2019;SDS011;1014;51.960;8.542;2022-07-21T12:46:08;28.93;;;27.00;;
2019;SDS011;1014;51.960;8.542;2022-07-21T12:48:36;36.00;;;33.40;;
2019;SDS011;1014;51.960;8.542;2022-07-21T12:51:07;35.50;;;32.90;;
2019;SDS011;1014;51.960;8.542;2022-07-21T12:53:36;34.63;;;32.10;;
2019;SDS011;1014;51.960;8.542;2022-07-21T12:56:04;35.47;;;33.03;;
2019;SDS011;1014;51.960;8.542;2022-07-21T12:58:32;36.80;;;34.40;;
2019;SDS011;1014;51.960;8.542;2022-07-21T13:00:59;36.70;;;34.10;;
2019;SDS011;1014;51.960;8.542;2022-07-21T13:03:27;34.60;;;32.40;;
2019;SDS011;1014;51.960;8.542;2022-07-21T13:05:55;33.93;;;31.67;;
2019;SDS011;1014;51.960;8.542;2022-07-21T13:08:23;33.23;;;31.20;;
2019;SDS011;1014;51.960;8.542;2022-07-21T13:10:51;29.80;;;27.90;;
2019;SDS011;1014;51.960;8.542;2022-07-21T13:13:18;32.63;;;30.47;;
2019;SDS011;1014;51.960;8.542;2022-07-21T13:15:46;30.70;;;28.70;;
2019;SDS011;1014;51.960;8.542;2022-07-21T13:18:13;31.73;;;29.73;;
2019;SDS011;1014;51.960;8.542;2022-07-21T13:20:41;28.70;;;26.80;;
2019;SDS011;1014;51.960;8.542;2022-07-21T13:23:08;29.57;;;27.67;;
2019;SDS011;1014;51.960;8.542;2022-07-21T13:25:37;31.90;;;29.80;;
2019;SDS011;1014;51.960;8.542;2022-07-21T13:28:04;25.37;;;23.87;;
2019;SDS011;1014;51.960;8.542;2022-07-21T13:30:32;30.17;;;28.17;;
2019;SDS011;1014;51.960;8.542;2022-07-21T13:32:59;30.57;;;28.50;;
2019;SDS011;1014;51.960;8.542;2022-07-21T13:35:26;33.90;;;31.47;;
2019;SDS011;1014;51.960;8.542;2022-07-21T13:37:54;31.47;;;29.47;;
2019;SDS011;1014;51.960;8.542;2022-07-21T13:40:21;33.83;;;31.67;;
2019;SDS011;1014;51.960;8.542;2022-07-21T13:42:50;33.77;;;31.17;;
2019;SDS011;1014;51.960;8.542;2022-07-21T13:45:18;34.57;;;32.37;;
2019;SDS011;1014;51.960;8.542;2022-07-21T13:47:45;35.70;;;33.30;;
2019;SDS011;1014;51.960;8.542;2022-07-21T13:50:13;37.80;;;35.27;;
2019;SDS011;1014;51.960;8.542;2022-07-21T13:52:40;40.40;;;37.67;;
2019;SDS011;1014;51.960;8.542;2022-07-21T13:55:07;39.00;;;36.47;;
2019;SDS011;1014;51.960;8.542;2022-07-21T13:57:35;37.83;;;35.33;;
2019;SDS011;1014;51.960;8.542;2022-07-21T14:00:05;36.57;;;33.90;;
2019;SDS011;1014;51.960;8.542;2022-07-21T14:02:33;36.57;;;34.23;;
2019;SDS011;1014;51.960;8.542;2022-07-21T14:05:00;35.33;;;33.13;;
2019;SDS011;1014;51.960;8.542;2022-07-21T14:07:28;34.20;;;31.80;;
2019;SDS011;1014;51.960;8.542;2022-07-21T14:09:56;31.70;;;29.90;;
2019;SDS011;1014;51.960;8.542;2022-07-21T14:12:23;33.23;;;31.13;;
2019;SDS011;1014;51.960;8.542;2022-07-21T14:14:51;30.90;;;29.10;;
2019;SDS011;1014;51.960;8.542;2022-07-21T14:17:19;36.20;;;33.80;;
2019;SDS011;1014;51.960;8.542;2022-07-21T14:19:50;32.53;;;30.53;;
2019;SDS011;1014;51.960;8.542;2022-07-21T14:22:17;37.00;;;34.60;;
2019;SDS011;1014;51.960;8.542;2022-07-21T14:24:46;37.13;;;34.93;;
2019;SDS011;1014;51.960;8.542;2022-07-21T14:27:31;32.87;;;31.07;;
2019;SDS011;1014;51.960;8.542;2022-07-21T14:29:59;35.10;;;32.90;;
2019;SDS011;1014;51.960;8.542;2022-07-21T14:32:27;36.50;;;34.10;;
2019;SDS011;1014;51.960;8.542;2022-07-21T14:34:56;33.87;;;31.57;;
2019;SDS011;1014;51.960;8.542;2022-07-21T14:37:24;36.40;;;34.40;;
2019;SDS011;1014;51.960;8.542;2022-07-21T14:39:51;36.50;;;34.50;;
2019;SDS011;1014;51.960;8.542;2022-07-21T14:42:19;33.20;;;31.07;;
2019;SDS011;1014;51.960;8.542;2022-07-21T14:44:48;31.60;;;29.63;;
2019;SDS011;1014;51.960;8.542;2022-07-21T14:47:15;30.33;;;28.63;;
2019;SDS011;1014;51.960;8.542;2022-07-21T14:49:44;31.63;;;29.73;;
2019;SDS011;1014;51.960;8.542;2022-07-21T14:52:11;30.03;;;28.33;;
2019;SDS011;1014;51.960;8.542;2022-07-21T14:54:39;30.43;;;28.53;;
2019;SDS011;1014;51.960;8.542;2022-07-21T14:57:06;28.83;;;27.13;;
2019;SDS011;1014;51.960;8.542;2022-07-21T14:59:33;29.27;;;27.53;;
2019;SDS011;1014;51.960;8.542;2022-07-21T15:02:01;27.93;;;26.43;;
2019;SDS011;1014;51.960;8.542;2022-07-21T15:04:28;28.73;;;27.27;;
2019;SDS011;1014;51.960;8.542;2022-07-21T15:06:57;27.53;;;26.03;;
2019;SDS011;1014;51.960;8.542;2022-07-21T15:09:24;25.17;;;23.90;;